sensor_id;sensor_type;location;lat;lon;timestamp;temperature;humidity
19106;DHT22;9685;54.338;18.672;2023-11-19T00:00:30;3.60;99.90
19106;DHT22;9685;54.338;18.672;2023-11-19T00:02:57;3.60;99.90
19106;DHT22;9685;54.338;18.672;2023-11-19T00:05:24;3.60;99.90
19106;DHT22;9685;54.338;18.672;2023-11-19T00:07:50;3.60;99.90
19106;DHT22;9685;54.338;18.672;2023-11-19T00:10:17;3.60;99.90
19106;DHT22;9685;54.338;18.672;2023-11-19T00:12:47;3.50;99.90
19106;DHT22;9685;54.338;18.672;2023-11-19T00:15:16;3.60;99.90
19106;DHT22;9685;54.338;18.672;2023-11-19T00:17:45;3.50;99.90
19106;DHT22;9685;54.338;18.672;2023-11-19T00:20:13;3.50;99.90
19106;DHT22;9685;54.338;18.672;2023-11-19T00:22:41;3.40;99.90
19106;DHT22;9685;54.338;18.672;2023-11-19T00:25:09;3.50;99.90
19106;DHT22;9685;54.338;18.672;2023-11-19T00:27:36;3.50;99.90
19106;DHT22;9685;54.338;18.672;2023-11-19T00:30:04;3.50;99.90
19106;DHT22;9685;54.338;18.672;2023-11-19T00:32:33;3.50;99.90
19106;DHT22;9685;54.338;18.672;2023-11-19T00:35:00;3.40;99.90
19106;DHT22;9685;54.338;18.672;2023-11-19T00:37:28;3.50;99.90
19106;DHT22;9685;54.338;18.672;2023-11-19T00:39:55;3.40;99.90
19106;DHT22;9685;54.338;18.672;2023-11-19T00:42:22;3.40;99.90
19106;DHT22;9685;54.338;18.672;2023-11-19T00:44:49;3.40;99.90
19106;DHT22;9685;54.338;18.672;2023-11-19T00:47:16;3.50;99.90
19106;DHT22;9685;54.338;18.672;2023-11-19T00:49:47;3.40;99.90
19106;DHT22;9685;54.338;18.672;2023-11-19T00:52:17;3.40;99.90
19106;DHT22;9685;54.338;18.672;2023-11-19T00:54:45;3.40;99.90
19106;DHT22;9685;54.338;18.672;2023-11-19T00:57:11;3.40;99.90
19106;DHT22;9685;54.338;18.672;2023-11-19T00:59:41;3.50;99.90
19106;DHT22;9685;54.338;18.672;2023-11-19T01:02:08;3.50;99.90
19106;DHT22;9685;54.338;18.672;2023-11-19T01:04:35;3.50;99.90
19106;DHT22;9685;54.338;18.672;2023-11-19T01:07:04;3.40;99.90
19106;DHT22;9685;54.338;18.672;2023-11-19T01:09:31;3.50;99.90
19106;DHT22;9685;54.338;18.672;2023-11-19T01:11:58;3.40;99.90
19106;DHT22;9685;54.338;18.672;2023-11-19T01:14:26;3.40;99.90
19106;DHT22;9685;54.338;18.672;2023-11-19T01:16:52;3.50;99.90
19106;DHT22;9685;54.338;18.672;2023-11-19T01:19:21;3.50;99.90
19106;DHT22;9685;54.338;18.672;2023-11-19T01:21:48;3.50;99.90
19106;DHT22;9685;54.338;18.672;2023-11-19T01:24:16;3.50;99.90
19106;DHT22;9685;54.338;18.672;2023-11-19T01:26:43;3.50;99.90
19106;DHT22;9685;54.338;18.672;2023-11-19T01:29:11;3.50;99.90
19106;DHT22;9685;54.338;18.672;2023-11-19T01:31:39;3.50;99.90
19106;DHT22;9685;54.338;18.672;2023-11-19T01:34:06;3.40;99.90
19106;DHT22;9685;54.338;18.672;2023-11-19T01:36:33;3.50;99.90
19106;DHT22;9685;54.338;18.672;2023-11-19T01:39:00;3.50;99.90
19106;DHT22;9685;54.338;18.672;2023-11-19T01:41:28;3.40;99.90
19106;DHT22;9685;54.338;18.672;2023-11-19T01:43:55;3.40;99.90
19106;DHT22;9685;54.338;18.672;2023-11-19T01:46:22;3.40;99.90
19106;DHT22;9685;54.338;18.672;2023-11-19T01:48:49;3.40;99.90
19106;DHT22;9685;54.338;18.672;2023-11-19T01:51:16;3.40;99.90
19106;DHT22;9685;54.338;18.672;2023-11-19T01:53:44;3.40;99.90
19106;DHT22;9685;54.338;18.672;2023-11-19T01:56:13;3.40;99.90
19106;DHT22;9685;54.338;18.672;2023-11-19T01:58:43;3.40;99.90
19106;DHT22;9685;54.338;18.672;2023-11-19T02:01:11;3.40;99.90
19106;DHT22;9685;54.338;18.672;2023-11-19T02:03:39;3.40;99.90
19106;DHT22;9685;54.338;18.672;2023-11-19T02:06:07;3.30;99.90
19106;DHT22;9685;54.338;18.672;2023-11-19T02:08:35;3.30;99.90
19106;DHT22;9685;54.338;18.672;2023-11-19T02:11:03;3.30;99.90
19106;DHT22;9685;54.338;18.672;2023-11-19T02:13:32;3.40;99.90
19106;DHT22;9685;54.338;18.672;2023-11-19T02:16:00;3.40;99.90
19106;DHT22;9685;54.338;18.672;2023-11-19T02:18:28;3.40;99.90
19106;DHT22;9685;54.338;18.672;2023-11-19T02:20:55;3.40;99.90
19106;DHT22;9685;54.338;18.672;2023-11-19T02:23:23;3.40;99.90
19106;DHT22;9685;54.338;18.672;2023-11-19T02:25:59;3.30;99.90
19106;DHT22;9685;54.338;18.672;2023-11-19T02:28:30;3.30;99.90
19106;DHT22;9685;54.338;18.672;2023-11-19T02:30:58;3.30;99.90
19106;DHT22;9685;54.338;18.672;2023-11-19T02:33:25;3.30;99.90
19106;DHT22;9685;54.338;18.672;2023-11-19T02:35:52;3.30;99.90
19106;DHT22;9685;54.338;18.672;2023-11-19T02:38:19;3.30;99.90
19106;DHT22;9685;54.338;18.672;2023-11-19T02:40:47;3.30;99.90
19106;DHT22;9685;54.338;18.672;2023-11-19T02:43:14;3.30;99.90
19106;DHT22;9685;54.338;18.672;2023-11-19T02:45:43;3.20;99.90
19106;DHT22;9685;54.338;18.672;2023-11-19T02:48:11;3.20;99.90
19106;DHT22;9685;54.338;18.672;2023-11-19T02:50:39;3.20;99.90
19106;DHT22;9685;54.338;18.672;2023-11-19T02:53:06;3.20;99.90
19106;DHT22;9685;54.338;18.672;2023-11-19T02:55:34;3.30;99.90
19106;DHT22;9685;54.338;18.672;2023-11-19T02:58:03;3.30;99.90
19106;DHT22;9685;54.338;18.672;2023-11-19T03:00:35;3.30;99.90
19106;DHT22;9685;54.338;18.672;2023-11-19T03:03:09;3.30;99.90
19106;DHT22;9685;54.338;18.672;2023-11-19T03:05:45;3.30;99.90
19106;DHT22;9685;54.338;18.672;2023-11-19T03:08:14;3.20;99.90
19106;DHT22;9685;54.338;18.672;2023-11-19T03:10:42;3.10;99.90
19106;DHT22;9685;54.338;18.672;2023-11-19T03:13:12;3.00;99.90
19106;DHT22;9685;54.338;18.672;2023-11-19T03:15:40;3.00;99.90
19106;DHT22;9685;54.338;18.672;2023-11-19T03:18:09;3.00;99.90
19106;DHT22;9685;54.338;18.672;2023-11-19T03:20:35;3.00;99.90
19106;DHT22;9685;54.338;18.672;2023-11-19T03:23:02;2.90;99.90
19106;DHT22;9685;54.338;18.672;2023-11-19T03:25:29;2.90;99.90
19106;DHT22;9685;54.338;18.672;2023-11-19T03:28:00;2.90;99.90
19106;DHT22;9685;54.338;18.672;2023-11-19T03:30:27;2.80;99.90
19106;DHT22;9685;54.338;18.672;2023-11-19T03:32:54;2.80;99.90
19106;DHT22;9685;54.338;18.672;2023-11-19T03:35:23;2.70;99.90
19106;DHT22;9685;54.338;18.672;2023-11-19T03:37:50;2.80;99.90
19106;DHT22;9685;54.338;18.672;2023-11-19T03:40:17;2.80;99.90
19106;DHT22;9685;54.338;18.672;2023-11-19T03:42:45;2.80;99.90
19106;DHT22;9685;54.338;18.672;2023-11-19T03:45:12;2.80;99.90
19106;DHT22;9685;54.338;18.672;2023-11-19T03:47:40;2.90;99.90
19106;DHT22;9685;54.338;18.672;2023-11-19T03:50:07;2.90;99.90
19106;DHT22;9685;54.338;18.672;2023-11-19T03:52:36;2.80;99.90
19106;DHT22;9685;54.338;18.672;2023-11-19T03:55:04;2.80;99.90
19106;DHT22;9685;54.338;18.672;2023-11-19T03:57:31;2.80;99.90
19106;DHT22;9685;54.338;18.672;2023-11-19T03:59:58;2.70;99.90
19106;DHT22;9685;54.338;18.672;2023-11-19T04:02:26;2.60;99.90
19106;DHT22;9685;54.338;18.672;2023-11-19T04:04:54;2.60;99.90
19106;DHT22;9685;54.338;18.672;2023-11-19T04:07:21;2.60;99.90
19106;DHT22;9685;54.338;18.672;2023-11-19T04:09:50;2.60;99.90
19106;DHT22;9685;54.338;18.672;2023-11-19T04:12:16;2.60;99.90
19106;DHT22;9685;54.338;18.672;2023-11-19T04:14:43;2.60;99.90
19106;DHT22;9685;54.338;18.672;2023-11-19T04:17:10;2.60;99.90
19106;DHT22;9685;54.338;18.672;2023-11-19T04:19:38;2.60;99.90
19106;DHT22;9685;54.338;18.672;2023-11-19T04:22:07;2.60;99.90
19106;DHT22;9685;54.338;18.672;2023-11-19T04:24:34;2.60;99.90
19106;DHT22;9685;54.338;18.672;2023-11-19T04:27:02;2.60;99.90
19106;DHT22;9685;54.338;18.672;2023-11-19T04:29:30;2.60;99.90
19106;DHT22;9685;54.338;18.672;2023-11-19T04:31:57;2.60;99.90
19106;DHT22;9685;54.338;18.672;2023-11-19T04:34:29;2.60;99.90
19106;DHT22;9685;54.338;18.672;2023-11-19T04:36:56;2.60;99.90
19106;DHT22;9685;54.338;18.672;2023-11-19T04:39:23;2.60;99.90
19106;DHT22;9685;54.338;18.672;2023-11-19T04:41:50;2.60;99.90
19106;DHT22;9685;54.338;18.672;2023-11-19T04:44:20;2.50;99.90
19106;DHT22;9685;54.338;18.672;2023-11-19T04:46:47;2.50;99.90
19106;DHT22;9685;54.338;18.672;2023-11-19T04:49:14;2.50;99.90
19106;DHT22;9685;54.338;18.672;2023-11-19T04:51:43;2.50;99.90
19106;DHT22;9685;54.338;18.672;2023-11-19T04:54:10;2.50;99.90
19106;DHT22;9685;54.338;18.672;2023-11-19T04:56:37;2.50;99.90
19106;DHT22;9685;54.338;18.672;2023-11-19T04:59:04;2.50;99.90
19106;DHT22;9685;54.338;18.672;2023-11-19T05:01:33;2.50;99.90
19106;DHT22;9685;54.338;18.672;2023-11-19T05:04:00;2.50;99.90
19106;DHT22;9685;54.338;18.672;2023-11-19T05:06:27;2.40;99.90
19106;DHT22;9685;54.338;18.672;2023-11-19T05:08:55;2.40;99.90
19106;DHT22;9685;54.338;18.672;2023-11-19T05:11:22;2.40;99.90
19106;DHT22;9685;54.338;18.672;2023-11-19T05:13:49;2.40;99.90
19106;DHT22;9685;54.338;18.672;2023-11-19T05:16:16;2.50;99.90
19106;DHT22;9685;54.338;18.672;2023-11-19T05:18:45;2.40;99.90
19106;DHT22;9685;54.338;18.672;2023-11-19T05:21:12;2.40;99.90
19106;DHT22;9685;54.338;18.672;2023-11-19T05:23:39;2.40;99.90
19106;DHT22;9685;54.338;18.672;2023-11-19T05:26:07;2.30;99.90
19106;DHT22;9685;54.338;18.672;2023-11-19T05:28:37;2.30;99.90
19106;DHT22;9685;54.338;18.672;2023-11-19T05:31:05;2.30;99.90
19106;DHT22;9685;54.338;18.672;2023-11-19T05:33:32;2.20;99.90
19106;DHT22;9685;54.338;18.672;2023-11-19T05:36:00;2.20;99.90
19106;DHT22;9685;54.338;18.672;2023-11-19T05:38:29;2.20;99.90
19106;DHT22;9685;54.338;18.672;2023-11-19T05:40:55;2.20;99.90
19106;DHT22;9685;54.338;18.672;2023-11-19T05:43:22;2.20;99.90
19106;DHT22;9685;54.338;18.672;2023-11-19T05:45:49;2.30;99.90
19106;DHT22;9685;54.338;18.672;2023-11-19T05:48:16;2.20;99.90
19106;DHT22;9685;54.338;18.672;2023-11-19T05:50:43;2.20;99.90
19106;DHT22;9685;54.338;18.672;2023-11-19T05:53:12;2.20;99.90
19106;DHT22;9685;54.338;18.672;2023-11-19T05:55:40;2.20;99.90
19106;DHT22;9685;54.338;18.672;2023-11-19T05:58:14;2.10;99.90
19106;DHT22;9685;54.338;18.672;2023-11-19T06:00:41;2.10;99.90
19106;DHT22;9685;54.338;18.672;2023-11-19T06:03:08;2.10;99.90
19106;DHT22;9685;54.338;18.672;2023-11-19T06:05:35;2.00;99.90
19106;DHT22;9685;54.338;18.672;2023-11-19T06:08:02;2.00;99.90
19106;DHT22;9685;54.338;18.672;2023-11-19T06:10:30;2.00;99.90
19106;DHT22;9685;54.338;18.672;2023-11-19T06:12:58;2.00;99.90
19106;DHT22;9685;54.338;18.672;2023-11-19T06:15:25;2.00;99.90
19106;DHT22;9685;54.338;18.672;2023-11-19T06:17:53;1.90;99.90
19106;DHT22;9685;54.338;18.672;2023-11-19T06:20:20;2.00;99.90
19106;DHT22;9685;54.338;18.672;2023-11-19T06:22:47;1.90;99.90
19106;DHT22;9685;54.338;18.672;2023-11-19T06:25:14;1.90;99.90
19106;DHT22;9685;54.338;18.672;2023-11-19T06:27:43;1.80;99.90
19106;DHT22;9685;54.338;18.672;2023-11-19T06:30:11;1.80;99.90
19106;DHT22;9685;54.338;18.672;2023-11-19T06:32:38;1.80;99.90
19106;DHT22;9685;54.338;18.672;2023-11-19T06:35:05;1.80;99.90
19106;DHT22;9685;54.338;18.672;2023-11-19T06:37:34;1.90;99.90
19106;DHT22;9685;54.338;18.672;2023-11-19T06:40:01;1.90;99.90
19106;DHT22;9685;54.338;18.672;2023-11-19T06:42:29;1.90;99.90
19106;DHT22;9685;54.338;18.672;2023-11-19T06:44:57;1.80;99.90
19106;DHT22;9685;54.338;18.672;2023-11-19T06:47:25;1.80;99.90
19106;DHT22;9685;54.338;18.672;2023-11-19T06:49:53;1.80;99.90
19106;DHT22;9685;54.338;18.672;2023-11-19T06:52:20;1.80;99.90
19106;DHT22;9685;54.338;18.672;2023-11-19T06:54:47;1.90;99.90
19106;DHT22;9685;54.338;18.672;2023-11-19T06:57:14;1.90;99.90
19106;DHT22;9685;54.338;18.672;2023-11-19T06:59:41;1.90;99.90
19106;DHT22;9685;54.338;18.672;2023-11-19T07:02:10;1.90;99.90
19106;DHT22;9685;54.338;18.672;2023-11-19T07:04:37;1.90;99.90
19106;DHT22;9685;54.338;18.672;2023-11-19T07:07:03;1.90;99.90
19106;DHT22;9685;54.338;18.672;2023-11-19T07:09:31;1.80;99.90
19106;DHT22;9685;54.338;18.672;2023-11-19T07:11:58;1.80;99.90
19106;DHT22;9685;54.338;18.672;2023-11-19T07:14:25;1.90;99.90
19106;DHT22;9685;54.338;18.672;2023-11-19T07:16:52;1.90;99.90
19106;DHT22;9685;54.338;18.672;2023-11-19T07:19:20;1.90;99.90
19106;DHT22;9685;54.338;18.672;2023-11-19T07:21:47;2.00;99.90
19106;DHT22;9685;54.338;18.672;2023-11-19T07:24:14;2.00;99.90
19106;DHT22;9685;54.338;18.672;2023-11-19T07:26:43;2.10;99.90
19106;DHT22;9685;54.338;18.672;2023-11-19T07:29:10;2.10;99.90
19106;DHT22;9685;54.338;18.672;2023-11-19T07:31:37;2.10;99.90
19106;DHT22;9685;54.338;18.672;2023-11-19T07:34:04;2.20;99.90
19106;DHT22;9685;54.338;18.672;2023-11-19T07:36:33;2.20;99.90
19106;DHT22;9685;54.338;18.672;2023-11-19T07:39:00;2.20;99.90
19106;DHT22;9685;54.338;18.672;2023-11-19T07:41:27;2.20;99.90
19106;DHT22;9685;54.338;18.672;2023-11-19T07:43:55;2.20;99.90
19106;DHT22;9685;54.338;18.672;2023-11-19T07:46:22;2.20;99.90
19106;DHT22;9685;54.338;18.672;2023-11-19T07:48:49;2.30;99.90
19106;DHT22;9685;54.338;18.672;2023-11-19T07:51:15;2.30;99.90
19106;DHT22;9685;54.338;18.672;2023-11-19T07:53:44;2.40;99.90
19106;DHT22;9685;54.338;18.672;2023-11-19T07:56:11;2.40;99.90
19106;DHT22;9685;54.338;18.672;2023-11-19T07:58:38;2.50;99.90
19106;DHT22;9685;54.338;18.672;2023-11-19T08:01:05;2.50;99.90
19106;DHT22;9685;54.338;18.672;2023-11-19T08:03:32;2.50;99.90
19106;DHT22;9685;54.338;18.672;2023-11-19T08:06:00;2.60;99.90
19106;DHT22;9685;54.338;18.672;2023-11-19T08:08:28;2.50;99.90
19106;DHT22;9685;54.338;18.672;2023-11-19T08:10:57;2.60;99.90
19106;DHT22;9685;54.338;18.672;2023-11-19T08:13:24;2.60;99.90
19106;DHT22;9685;54.338;18.672;2023-11-19T08:15:51;2.60;99.90
19106;DHT22;9685;54.338;18.672;2023-11-19T08:18:18;2.60;99.90
19106;DHT22;9685;54.338;18.672;2023-11-19T08:20:45;2.70;99.90
19106;DHT22;9685;54.338;18.672;2023-11-19T08:23:19;2.70;99.90
19106;DHT22;9685;54.338;18.672;2023-11-19T08:25:46;2.70;99.90
19106;DHT22;9685;54.338;18.672;2023-11-19T08:28:14;2.80;99.90
19106;DHT22;9685;54.338;18.672;2023-11-19T08:30:42;2.80;99.90
19106;DHT22;9685;54.338;18.672;2023-11-19T08:33:09;2.90;99.90
19106;DHT22;9685;54.338;18.672;2023-11-19T08:35:37;3.00;99.90
19106;DHT22;9685;54.338;18.672;2023-11-19T08:38:04;3.00;99.90
19106;DHT22;9685;54.338;18.672;2023-11-19T08:40:30;3.00;99.90
19106;DHT22;9685;54.338;18.672;2023-11-19T08:42:57;3.00;99.90
19106;DHT22;9685;54.338;18.672;2023-11-19T08:45:26;2.90;99.90
19106;DHT22;9685;54.338;18.672;2023-11-19T08:47:53;2.80;99.90
19106;DHT22;9685;54.338;18.672;2023-11-19T08:50:20;2.80;99.90
19106;DHT22;9685;54.338;18.672;2023-11-19T08:52:47;2.80;99.90
19106;DHT22;9685;54.338;18.672;2023-11-19T08:55:13;2.80;99.90
19106;DHT22;9685;54.338;18.672;2023-11-19T08:57:40;2.80;99.90
19106;DHT22;9685;54.338;18.672;2023-11-19T09:00:08;2.90;99.90
19106;DHT22;9685;54.338;18.672;2023-11-19T09:02:36;2.80;99.90
19106;DHT22;9685;54.338;18.672;2023-11-19T09:05:04;2.90;99.90
19106;DHT22;9685;54.338;18.672;2023-11-19T09:07:31;2.90;99.90
19106;DHT22;9685;54.338;18.672;2023-11-19T09:09:58;2.90;99.90
19106;DHT22;9685;54.338;18.672;2023-11-19T09:12:25;3.00;99.90
19106;DHT22;9685;54.338;18.672;2023-11-19T09:14:52;3.00;99.90
19106;DHT22;9685;54.338;18.672;2023-11-19T09:17:19;3.10;99.90
19106;DHT22;9685;54.338;18.672;2023-11-19T09:19:47;3.10;99.90
19106;DHT22;9685;54.338;18.672;2023-11-19T09:22:14;3.10;99.90
19106;DHT22;9685;54.338;18.672;2023-11-19T09:24:41;3.00;99.90
19106;DHT22;9685;54.338;18.672;2023-11-19T09:27:09;3.10;99.90
19106;DHT22;9685;54.338;18.672;2023-11-19T09:29:37;3.20;99.90
19106;DHT22;9685;54.338;18.672;2023-11-19T09:32:05;3.10;99.10
19106;DHT22;9685;54.338;18.672;2023-11-19T09:34:32;3.10;99.90
19106;DHT22;9685;54.338;18.672;2023-11-19T09:37:00;3.10;99.40
19106;DHT22;9685;54.338;18.672;2023-11-19T09:39:28;3.00;98.80
19106;DHT22;9685;54.338;18.672;2023-11-19T09:41:55;3.00;99.90
19106;DHT22;9685;54.338;18.672;2023-11-19T09:44:23;3.10;99.90
19106;DHT22;9685;54.338;18.672;2023-11-19T09:46:51;3.10;99.90
19106;DHT22;9685;54.338;18.672;2023-11-19T09:49:21;3.20;99.90
19106;DHT22;9685;54.338;18.672;2023-11-19T09:51:48;3.20;99.90
19106;DHT22;9685;54.338;18.672;2023-11-19T09:54:16;3.10;98.30
19106;DHT22;9685;54.338;18.672;2023-11-19T09:56:43;3.00;99.90
19106;DHT22;9685;54.338;18.672;2023-11-19T09:59:11;3.00;99.90
19106;DHT22;9685;54.338;18.672;2023-11-19T10:01:38;3.00;99.90
19106;DHT22;9685;54.338;18.672;2023-11-19T10:04:06;3.10;99.90
19106;DHT22;9685;54.338;18.672;2023-11-19T10:06:33;3.00;99.90
19106;DHT22;9685;54.338;18.672;2023-11-19T10:09:00;3.00;99.90
19106;DHT22;9685;54.338;18.672;2023-11-19T10:11:28;3.10;99.90
19106;DHT22;9685;54.338;18.672;2023-11-19T10:13:55;3.00;99.90
19106;DHT22;9685;54.338;18.672;2023-11-19T10:16:29;3.00;99.90
19106;DHT22;9685;54.338;18.672;2023-11-19T10:18:57;3.10;99.90
19106;DHT22;9685;54.338;18.672;2023-11-19T10:21:24;3.10;99.90
19106;DHT22;9685;54.338;18.672;2023-11-19T10:23:55;3.10;99.90
19106;DHT22;9685;54.338;18.672;2023-11-19T10:26:22;3.10;99.90
19106;DHT22;9685;54.338;18.672;2023-11-19T10:28:51;3.10;99.90
19106;DHT22;9685;54.338;18.672;2023-11-19T10:31:19;3.10;99.90
19106;DHT22;9685;54.338;18.672;2023-11-19T10:33:50;3.20;99.90
19106;DHT22;9685;54.338;18.672;2023-11-19T10:36:17;3.20;99.90
19106;DHT22;9685;54.338;18.672;2023-11-19T10:38:52;3.30;99.90
19106;DHT22;9685;54.338;18.672;2023-11-19T10:41:27;3.30;99.90
19106;DHT22;9685;54.338;18.672;2023-11-19T10:43:55;3.30;99.90
19106;DHT22;9685;54.338;18.672;2023-11-19T10:46:23;3.40;99.90
19106;DHT22;9685;54.338;18.672;2023-11-19T10:49:02;3.30;99.90
19106;DHT22;9685;54.338;18.672;2023-11-19T10:51:29;3.30;99.50
19106;DHT22;9685;54.338;18.672;2023-11-19T10:54:01;3.30;99.90
19106;DHT22;9685;54.338;18.672;2023-11-19T10:56:30;3.30;99.90
19106;DHT22;9685;54.338;18.672;2023-11-19T10:58:59;3.30;99.90
19106;DHT22;9685;54.338;18.672;2023-11-19T11:01:29;3.30;99.90
19106;DHT22;9685;54.338;18.672;2023-11-19T11:04:00;3.30;99.90
19106;DHT22;9685;54.338;18.672;2023-11-19T11:06:27;3.40;99.90
19106;DHT22;9685;54.338;18.672;2023-11-19T11:08:55;3.50;99.90
19106;DHT22;9685;54.338;18.672;2023-11-19T11:11:22;3.40;99.90
19106;DHT22;9685;54.338;18.672;2023-11-19T11:13:50;3.50;99.90
19106;DHT22;9685;54.338;18.672;2023-11-19T11:16:20;3.50;99.90
19106;DHT22;9685;54.338;18.672;2023-11-19T11:18:49;3.50;99.90
19106;DHT22;9685;54.338;18.672;2023-11-19T11:21:22;3.60;99.10
19106;DHT22;9685;54.338;18.672;2023-11-19T11:24:38;3.50;98.20
19106;DHT22;9685;54.338;18.672;2023-11-19T11:27:39;3.50;99.40
19106;DHT22;9685;54.338;18.672;2023-11-19T11:30:27;3.40;99.50
19106;DHT22;9685;54.338;18.672;2023-11-19T11:33:05;3.40;98.50
19106;DHT22;9685;54.338;18.672;2023-11-19T11:35:42;3.50;98.50
19106;DHT22;9685;54.338;18.672;2023-11-19T11:38:16;3.60;98.80
19106;DHT22;9685;54.338;18.672;2023-11-19T11:41:15;3.60;99.30
19106;DHT22;9685;54.338;18.672;2023-11-19T11:43:47;3.60;98.30
19106;DHT22;9685;54.338;18.672;2023-11-19T11:49:27;3.70;98.80
19106;DHT22;9685;54.338;18.672;2023-11-19T11:52:02;3.70;97.90
19106;DHT22;9685;54.338;18.672;2023-11-19T11:54:32;3.70;97.40
19106;DHT22;9685;54.338;18.672;2023-11-19T11:57:05;3.60;97.20
19106;DHT22;9685;54.338;18.672;2023-11-19T11:59:46;3.70;96.60
19106;DHT22;9685;54.338;18.672;2023-11-19T12:02:14;3.70;98.80
19106;DHT22;9685;54.338;18.672;2023-11-19T12:04:47;3.80;99.90
19106;DHT22;9685;54.338;18.672;2023-11-19T12:07:17;3.70;96.50
19106;DHT22;9685;54.338;18.672;2023-11-19T12:09:48;3.60;99.40
19106;DHT22;9685;54.338;18.672;2023-11-19T12:12:22;3.70;99.70
19106;DHT22;9685;54.338;18.672;2023-11-19T12:15:06;3.70;99.50
19106;DHT22;9685;54.338;18.672;2023-11-19T12:17:47;3.70;99.00
19106;DHT22;9685;54.338;18.672;2023-11-19T12:20:20;3.70;99.90
19106;DHT22;9685;54.338;18.672;2023-11-19T12:22:48;3.60;99.90
19106;DHT22;9685;54.338;18.672;2023-11-19T12:25:16;3.60;99.90
19106;DHT22;9685;54.338;18.672;2023-11-19T12:27:46;3.60;99.90
19106;DHT22;9685;54.338;18.672;2023-11-19T12:30:17;3.50;99.90
19106;DHT22;9685;54.338;18.672;2023-11-19T12:32:45;3.50;99.90
19106;DHT22;9685;54.338;18.672;2023-11-19T12:35:13;3.60;99.90
19106;DHT22;9685;54.338;18.672;2023-11-19T12:37:45;3.60;99.90
19106;DHT22;9685;54.338;18.672;2023-11-19T12:40:14;3.60;99.90
19106;DHT22;9685;54.338;18.672;2023-11-19T12:42:42;3.60;99.90
19106;DHT22;9685;54.338;18.672;2023-11-19T12:45:09;3.60;99.90
19106;DHT22;9685;54.338;18.672;2023-11-19T12:47:38;3.60;99.90
19106;DHT22;9685;54.338;18.672;2023-11-19T12:50:05;3.60;99.90
19106;DHT22;9685;54.338;18.672;2023-11-19T12:52:33;3.60;99.90
19106;DHT22;9685;54.338;18.672;2023-11-19T12:55:02;3.50;99.90
19106;DHT22;9685;54.338;18.672;2023-11-19T12:57:39;3.60;99.90
19106;DHT22;9685;54.338;18.672;2023-11-19T13:00:07;3.50;99.90
19106;DHT22;9685;54.338;18.672;2023-11-19T13:02:46;3.50;99.90
19106;DHT22;9685;54.338;18.672;2023-11-19T13:05:22;3.50;99.90
19106;DHT22;9685;54.338;18.672;2023-11-19T13:07:49;3.50;99.90
19106;DHT22;9685;54.338;18.672;2023-11-19T13:10:17;3.50;99.90
19106;DHT22;9685;54.338;18.672;2023-11-19T13:12:44;3.40;99.90
19106;DHT22;9685;54.338;18.672;2023-11-19T13:15:22;3.40;99.90
19106;DHT22;9685;54.338;18.672;2023-11-19T13:17:50;3.60;99.90
19106;DHT22;9685;54.338;18.672;2023-11-19T13:20:17;3.60;99.90
19106;DHT22;9685;54.338;18.672;2023-11-19T13:22:54;3.80;99.90
19106;DHT22;9685;54.338;18.672;2023-11-19T13:25:22;3.70;99.90
19106;DHT22;9685;54.338;18.672;2023-11-19T13:27:49;3.70;99.90
19106;DHT22;9685;54.338;18.672;2023-11-19T13:30:16;3.60;99.90
19106;DHT22;9685;54.338;18.672;2023-11-19T13:32:43;3.70;99.90
19106;DHT22;9685;54.338;18.672;2023-11-19T13:35:11;3.50;99.90
19106;DHT22;9685;54.338;18.672;2023-11-19T13:37:39;3.50;99.90
19106;DHT22;9685;54.338;18.672;2023-11-19T13:40:07;3.60;99.90
19106;DHT22;9685;54.338;18.672;2023-11-19T13:42:37;3.50;99.90
19106;DHT22;9685;54.338;18.672;2023-11-19T13:45:07;3.50;99.90
19106;DHT22;9685;54.338;18.672;2023-11-19T13:47:37;3.50;99.90
19106;DHT22;9685;54.338;18.672;2023-11-19T13:50:08;3.60;99.90
19106;DHT22;9685;54.338;18.672;2023-11-19T13:52:35;3.50;99.90
19106;DHT22;9685;54.338;18.672;2023-11-19T13:55:05;3.50;99.90
19106;DHT22;9685;54.338;18.672;2023-11-19T13:57:32;3.50;99.90
19106;DHT22;9685;54.338;18.672;2023-11-19T14:00:01;3.50;99.90
19106;DHT22;9685;54.338;18.672;2023-11-19T14:02:31;3.40;99.90
19106;DHT22;9685;54.338;18.672;2023-11-19T14:04:58;3.40;99.90
19106;DHT22;9685;54.338;18.672;2023-11-19T14:07:25;3.50;99.90
19106;DHT22;9685;54.338;18.672;2023-11-19T14:09:52;3.50;99.90
19106;DHT22;9685;54.338;18.672;2023-11-19T14:12:19;3.50;99.90
19106;DHT22;9685;54.338;18.672;2023-11-19T14:14:46;3.50;99.90
19106;DHT22;9685;54.338;18.672;2023-11-19T14:17:15;3.50;99.90
19106;DHT22;9685;54.338;18.672;2023-11-19T14:19:42;3.50;99.90
19106;DHT22;9685;54.338;18.672;2023-11-19T14:22:09;3.50;99.90
19106;DHT22;9685;54.338;18.672;2023-11-19T14:24:37;3.60;99.90
19106;DHT22;9685;54.338;18.672;2023-11-19T14:27:05;3.50;99.90
19106;DHT22;9685;54.338;18.672;2023-11-19T14:29:32;3.50;99.90
19106;DHT22;9685;54.338;18.672;2023-11-19T14:32:00;3.50;99.90
19106;DHT22;9685;54.338;18.672;2023-11-19T14:34:29;3.50;99.90
19106;DHT22;9685;54.338;18.672;2023-11-19T14:36:56;3.50;99.90
19106;DHT22;9685;54.338;18.672;2023-11-19T14:39:23;3.50;99.90
19106;DHT22;9685;54.338;18.672;2023-11-19T14:41:50;3.50;99.90
19106;DHT22;9685;54.338;18.672;2023-11-19T14:44:18;3.50;99.90
19106;DHT22;9685;54.338;18.672;2023-11-19T14:46:45;3.60;99.90
19106;DHT22;9685;54.338;18.672;2023-11-19T14:49:12;3.50;99.90
19106;DHT22;9685;54.338;18.672;2023-11-19T14:51:41;3.50;99.90
19106;DHT22;9685;54.338;18.672;2023-11-19T14:54:08;3.50;99.90
19106;DHT22;9685;54.338;18.672;2023-11-19T14:56:35;3.50;99.90
19106;DHT22;9685;54.338;18.672;2023-11-19T14:59:04;3.50;99.90
19106;DHT22;9685;54.338;18.672;2023-11-19T15:01:33;3.40;99.90
19106;DHT22;9685;54.338;18.672;2023-11-19T15:04:00;3.40;99.90
19106;DHT22;9685;54.338;18.672;2023-11-19T15:06:29;3.40;99.90
19106;DHT22;9685;54.338;18.672;2023-11-19T15:09:00;3.40;99.90
19106;DHT22;9685;54.338;18.672;2023-11-19T15:11:28;3.40;99.90
19106;DHT22;9685;54.338;18.672;2023-11-19T15:14:00;3.40;99.90
19106;DHT22;9685;54.338;18.672;2023-11-19T15:16:33;3.30;99.90
19106;DHT22;9685;54.338;18.672;2023-11-19T15:19:01;3.30;99.90
19106;DHT22;9685;54.338;18.672;2023-11-19T15:21:29;3.30;99.90
19106;DHT22;9685;54.338;18.672;2023-11-19T15:23:57;3.30;99.90
19106;DHT22;9685;54.338;18.672;2023-11-19T15:26:27;3.30;99.90
19106;DHT22;9685;54.338;18.672;2023-11-19T15:28:55;3.20;99.90
19106;DHT22;9685;54.338;18.672;2023-11-19T15:31:24;3.10;99.90
19106;DHT22;9685;54.338;18.672;2023-11-19T15:33:50;3.20;99.90
19106;DHT22;9685;54.338;18.672;2023-11-19T15:36:17;3.30;99.90
19106;DHT22;9685;54.338;18.672;2023-11-19T15:38:44;3.20;99.90
19106;DHT22;9685;54.338;18.672;2023-11-19T15:41:11;3.30;99.90
19106;DHT22;9685;54.338;18.672;2023-11-19T15:43:40;3.20;99.90
19106;DHT22;9685;54.338;18.672;2023-11-19T15:46:08;3.30;99.90
19106;DHT22;9685;54.338;18.672;2023-11-19T15:48:36;3.30;99.90
19106;DHT22;9685;54.338;18.672;2023-11-19T15:51:04;3.30;99.90
19106;DHT22;9685;54.338;18.672;2023-11-19T15:53:31;3.30;99.90
19106;DHT22;9685;54.338;18.672;2023-11-19T15:55:58;3.30;99.90